createdAt,value
2023-02-19T00:00:28.939Z,7.70
2023-02-19T00:03:15.442Z,7.66
2023-02-19T00:06:03.319Z,7.60
2023-02-19T00:08:49.512Z,7.53
2023-02-19T00:11:36.059Z,7.49
2023-02-19T00:14:22.151Z,7.44
2023-02-19T00:17:07.843Z,7.39
2023-02-19T00:19:53.338Z,7.32
2023-02-19T00:22:39.473Z,7.28
2023-02-19T00:25:25.561Z,7.23
2023-02-19T00:28:11.395Z,7.17
2023-02-19T00:31:05.888Z,7.14
2023-02-19T00:33:55.039Z,7.08
2023-02-19T00:36:42.218Z,6.98
2023-02-19T00:39:28.279Z,6.85
2023-02-19T00:42:14.032Z,6.74
2023-02-19T00:44:59.744Z,6.58
2023-02-19T00:47:45.444Z,6.41
2023-02-19T00:50:31.360Z,6.30
2023-02-19T00:53:17.234Z,6.21
2023-02-19T00:56:02.868Z,6.16
2023-02-19T00:58:48.930Z,6.10
2023-02-19T01:01:34.976Z,6.10
2023-02-19T01:04:20.739Z,6.04
2023-02-19T01:07:07.050Z,5.94
2023-02-19T01:09:55.413Z,5.83
2023-02-19T01:12:41.037Z,5.73
2023-02-19T01:15:27.100Z,5.68
2023-02-19T01:18:12.913Z,5.67
2023-02-19T01:20:59.259Z,5.66
2023-02-19T01:23:45.285Z,5.62
2023-02-19T01:26:32.271Z,5.66
2023-02-19T01:29:18.349Z,5.64
2023-02-19T01:32:04.308Z,5.56
2023-02-19T01:34:50.705Z,5.47
2023-02-19T01:37:37.314Z,5.32
2023-02-19T01:40:23.486Z,5.28
2023-02-19T01:43:16.209Z,5.27
2023-02-19T01:46:02.090Z,5.29
2023-02-19T01:48:47.825Z,5.29
2023-02-19T01:51:34.484Z,5.29
2023-02-19T01:54:22.628Z,5.33
2023-02-19T01:57:13.756Z,5.37
2023-02-19T02:00:05.019Z,5.37
2023-02-19T02:02:58.809Z,5.38
2023-02-19T02:05:50.593Z,5.32
2023-02-19T02:08:55.861Z,5.27
2023-02-19T02:11:49.219Z,5.18
2023-02-19T02:14:38.162Z,5.15
2023-02-19T02:17:32.138Z,5.13
2023-02-19T02:20:55.249Z,5.09
2023-02-19T02:23:53.329Z,5.08
2023-02-19T02:27:01.255Z,5.08
2023-02-19T02:30:06.549Z,5.08
2023-02-19T02:33:19.787Z,5.08
2023-02-19T02:36:09.429Z,5.07
2023-02-19T02:38:58.397Z,5.08
2023-02-19T02:41:49.057Z,5.05
2023-02-19T02:44:42.164Z,5.02
2023-02-19T02:47:45.018Z,5.03
2023-02-19T02:50:37.040Z,5.02
2023-02-19T02:54:00.406Z,5.00
2023-02-19T02:56:48.363Z,5.03
2023-02-19T02:59:37.707Z,5.01
2023-02-19T03:02:26.796Z,4.98
2023-02-19T03:05:36.613Z,4.96
2023-02-19T03:08:25.430Z,4.95
2023-02-19T03:11:30.417Z,4.91
2023-02-19T03:14:40.651Z,4.89
2023-02-19T03:18:15.969Z,4.82
2023-02-19T03:21:04.415Z,4.76
2023-02-19T03:24:09.637Z,4.76
2023-02-19T03:26:57.514Z,4.70
2023-02-19T03:29:45.052Z,4.65
2023-02-19T03:32:38.724Z,4.62
2023-02-19T03:35:33.730Z,4.59
2023-02-19T03:38:26.762Z,4.54
2023-02-19T03:41:21.563Z,4.57
2023-02-19T03:44:41.134Z,4.53
2023-02-19T03:47:34.318Z,4.49
2023-02-19T03:50:23.636Z,4.46
2023-02-19T03:53:35.117Z,4.44
2023-02-19T03:56:47.257Z,4.46
2023-02-19T03:59:43.974Z,4.47
2023-02-19T04:02:42.162Z,4.46
2023-02-19T04:05:30.909Z,4.47
2023-02-19T04:08:19.438Z,4.46
2023-02-19T04:11:12.194Z,4.45
2023-02-19T04:14:13.266Z,4.42
2023-02-19T04:17:03.298Z,4.39
2023-02-19T04:19:50.528Z,4.35
2023-02-19T04:22:37.261Z,4.29
2023-02-19T04:25:23.811Z,4.28
2023-02-19T04:28:10.101Z,4.28
2023-02-19T04:30:56.095Z,4.27
2023-02-19T04:33:41.851Z,4.27
2023-02-19T04:36:27.397Z,4.28
2023-02-19T04:39:13.111Z,4.25
2023-02-19T04:41:58.780Z,4.24
2023-02-19T04:44:44.519Z,4.18
2023-02-19T04:47:32.185Z,4.20
2023-02-19T04:50:18.243Z,4.24
2023-02-19T04:53:04.105Z,4.20
2023-02-19T04:55:53.223Z,4.16
2023-02-19T04:58:39.689Z,4.16
2023-02-19T05:01:25.660Z,4.17
2023-02-19T05:04:11.571Z,4.16
2023-02-19T05:06:57.399Z,4.19
2023-02-19T05:09:42.957Z,4.19
2023-02-19T05:12:31.117Z,4.17
2023-02-19T05:15:17.010Z,4.17
2023-02-19T05:18:03.185Z,4.13
2023-02-19T05:20:50.712Z,4.14
2023-02-19T05:23:36.941Z,4.09
2023-02-19T05:26:24.237Z,4.09
2023-02-19T05:29:10.324Z,4.02
2023-02-19T05:31:57.203Z,3.99
2023-02-19T05:34:42.904Z,3.97
2023-02-19T05:37:28.971Z,3.88
2023-02-19T05:40:14.840Z,3.84
2023-02-19T05:43:00.446Z,3.82
2023-02-19T05:45:46.086Z,3.81
2023-02-19T05:48:32.573Z,3.76
2023-02-19T05:51:21.716Z,3.81
2023-02-19T05:54:07.838Z,3.81
2023-02-19T05:56:53.737Z,3.83
2023-02-19T05:59:39.723Z,3.87
2023-02-19T06:02:25.412Z,3.88
2023-02-19T06:05:11.514Z,3.91
2023-02-19T06:07:57.329Z,3.92
2023-02-19T06:10:43.685Z,3.93
2023-02-19T06:13:29.700Z,3.93
2023-02-19T06:16:17.607Z,3.89
2023-02-19T06:19:04.164Z,3.91
2023-02-19T06:21:50.834Z,3.89
2023-02-19T06:24:37.852Z,3.94
2023-02-19T06:27:24.026Z,3.94
2023-02-19T06:30:10.773Z,3.96
2023-02-19T06:32:57.913Z,3.99
2023-02-19T06:35:43.611Z,4.04
2023-02-19T06:38:29.438Z,4.08
2023-02-19T06:41:15.793Z,4.13
2023-02-19T06:44:02.034Z,4.16
2023-02-19T06:46:48.126Z,4.18
2023-02-19T06:49:33.710Z,4.22
2023-02-19T06:52:19.655Z,4.21
2023-02-19T06:55:09.097Z,4.33
2023-02-19T06:57:54.846Z,4.36
2023-02-19T07:00:40.368Z,4.37
2023-02-19T07:03:29.590Z,4.41
2023-02-19T07:06:15.600Z,4.51
2023-02-19T07:09:01.924Z,4.56
2023-02-19T07:11:48.015Z,4.61
2023-02-19T07:14:33.788Z,4.61
2023-02-19T07:17:19.794Z,4.71
2023-02-19T07:20:05.795Z,4.73
2023-02-19T07:22:51.467Z,4.80
2023-02-19T07:25:38.153Z,4.85
2023-02-19T07:28:24.169Z,4.92
2023-02-19T07:31:10.626Z,5.00
2023-02-19T07:33:56.691Z,5.07
2023-02-19T07:36:42.511Z,5.16
2023-02-19T07:39:28.419Z,5.21
2023-02-19T07:42:14.253Z,5.23
2023-02-19T07:45:00.726Z,5.38
2023-02-19T07:47:46.672Z,5.47
2023-02-19T07:50:32.469Z,5.57
2023-02-19T07:53:18.836Z,5.69
2023-02-19T07:56:06.808Z,5.80
2023-02-19T07:58:52.989Z,5.82
2023-02-19T08:01:57.503Z,5.98
2023-02-19T08:04:43.585Z,6.20
2023-02-19T08:07:39.557Z,6.32
2023-02-19T08:10:44.373Z,6.52
2023-02-19T08:13:30.929Z,6.69
2023-02-19T08:16:29.658Z,6.83
2023-02-19T08:19:23.351Z,7.05
2023-02-19T08:22:09.373Z,7.19
2023-02-19T08:24:55.073Z,7.37
2023-02-19T08:27:40.930Z,7.52
2023-02-19T08:30:31.351Z,7.68
2023-02-19T08:33:19.707Z,7.86
2023-02-19T08:36:07.052Z,7.99
2023-02-19T08:38:52.945Z,8.13
2023-02-19T08:41:38.715Z,8.27
2023-02-19T08:44:26.360Z,8.40
2023-02-19T08:47:12.459Z,8.48
2023-02-19T08:49:58.197Z,8.70
2023-02-19T08:52:43.989Z,8.85
2023-02-19T08:55:30.167Z,9.07
2023-02-19T08:58:16.059Z,9.35
2023-02-19T09:01:01.896Z,9.58
2023-02-19T09:03:47.866Z,9.84
2023-02-19T09:06:33.888Z,10.07
2023-02-19T09:09:19.958Z,10.30
2023-02-19T09:12:07.476Z,10.45
2023-02-19T09:14:53.075Z,10.69
2023-02-19T09:17:38.951Z,10.85
2023-02-19T09:20:25.427Z,11.04
2023-02-19T09:23:11.568Z,11.19
2023-02-19T09:26:00.221Z,11.31
2023-02-19T09:28:46.009Z,11.52
2023-02-19T09:31:32.667Z,11.72
2023-02-19T09:34:18.307Z,11.89
2023-02-19T09:37:03.982Z,12.05
2023-02-19T09:39:49.561Z,12.18
2023-02-19T09:42:35.667Z,12.34
2023-02-19T09:45:26.356Z,12.45
2023-02-19T09:48:12.608Z,12.59
2023-02-19T09:50:59.649Z,12.75
2023-02-19T09:53:48.166Z,12.88
2023-02-19T09:56:34.723Z,13.00
2023-02-19T09:59:42.470Z,13.14
2023-02-19T10:02:30.855Z,13.28
2023-02-19T10:05:17.211Z,13.45
2023-02-19T10:08:05.632Z,13.63
2023-02-19T10:10:53.544Z,13.75
2023-02-19T10:13:53.786Z,13.93
2023-02-19T10:16:40.984Z,14.06
2023-02-19T10:19:27.175Z,14.12
2023-02-19T10:22:13.607Z,14.24
2023-02-19T10:24:59.698Z,14.36
2023-02-19T10:27:46.506Z,14.50
2023-02-19T10:30:34.229Z,14.65
2023-02-19T10:33:22.009Z,14.77
2023-02-19T10:36:21.287Z,14.93
2023-02-19T10:39:22.548Z,15.06
2023-02-19T10:42:15.963Z,15.17
2023-02-19T10:45:02.910Z,15.25
2023-02-19T10:47:49.586Z,15.33
2023-02-19T10:50:47.140Z,15.33
2023-02-19T10:53:42.669Z,15.36
2023-02-19T10:56:31.424Z,15.38
2023-02-19T10:59:28.378Z,15.42
2023-02-19T11:02:19.055Z,15.47
2023-02-19T11:05:16.774Z,15.60
2023-02-19T11:08:02.550Z,15.76
2023-02-19T11:10:48.583Z,15.93
2023-02-19T11:13:38.062Z,16.15
2023-02-19T11:16:25.186Z,16.35
2023-02-19T11:19:26.486Z,16.49
2023-02-19T11:22:32.869Z,16.63
2023-02-19T11:25:21.714Z,16.83
2023-02-19T11:28:20.667Z,16.98
2023-02-19T11:31:19.367Z,17.30
2023-02-19T11:34:14.429Z,17.56
2023-02-19T11:37:12.223Z,17.75
2023-02-19T11:39:58.075Z,18.03
2023-02-19T11:43:07.785Z,18.38
2023-02-19T11:46:17.239Z,18.64
2023-02-19T11:49:24.656Z,18.88
2023-02-19T11:52:29.516Z,19.13
2023-02-19T11:55:36.260Z,19.31
2023-02-19T11:59:00.897Z,19.53
2023-02-19T12:01:53.339Z,19.70
2023-02-19T12:05:19.062Z,19.80
2023-02-19T12:08:26.088Z,19.99
2023-02-19T12:11:38.240Z,20.33
2023-02-19T12:14:46.877Z,20.62
2023-02-19T12:17:54.023Z,20.86
2023-02-19T12:21:13.624Z,21.03
2023-02-19T12:24:09.479Z,21.24
2023-02-19T12:27:33.947Z,21.47
2023-02-19T12:30:51.576Z,21.68
2023-02-19T12:33:40.610Z,21.91
2023-02-19T12:37:00.221Z,22.14
2023-02-19T12:39:52.358Z,22.34
2023-02-19T12:42:56.953Z,22.68
2023-02-19T12:45:45.548Z,22.78
2023-02-19T12:49:00.200Z,22.87
2023-02-19T12:51:55.283Z,22.98
2023-02-19T12:54:44.282Z,23.09
2023-02-19T12:57:35.134Z,23.10
2023-02-19T13:00:41.098Z,23.15
2023-02-19T13:03:49.420Z,23.11
2023-02-19T13:06:50.793Z,23.11
2023-02-19T13:09:47.075Z,23.17
2023-02-19T13:12:41.632Z,23.24
2023-02-19T13:15:35.621Z,23.36
2023-02-19T13:18:25.891Z,23.48
2023-02-19T13:21:13.542Z,23.68
2023-02-19T13:24:12.150Z,24.02
2023-02-19T13:27:42.255Z,24.41
2023-02-19T13:30:43.235Z,24.65
2023-02-19T13:33:54.780Z,24.97
2023-02-19T13:36:41.879Z,24.99
2023-02-19T13:39:29.257Z,24.93
2023-02-19T13:42:41.617Z,24.83
2023-02-19T13:45:41.140Z,24.49
2023-02-19T13:48:32.981Z,24.06
2023-02-19T13:51:29.716Z,23.69
2023-02-19T13:54:22.777Z,23.23
2023-02-19T13:57:24.073Z,22.92
2023-02-19T14:00:49.298Z,22.76
2023-02-19T14:03:55.553Z,22.76
2023-02-19T14:07:07.646Z,22.90
2023-02-19T14:09:55.241Z,23.02
2023-02-19T14:12:41.231Z,23.14
2023-02-19T14:15:53.395Z,23.20
2023-02-19T14:18:45.699Z,23.14
2023-02-19T14:21:36.800Z,23.09
2023-02-19T14:24:23.591Z,22.96
2023-02-19T14:27:09.532Z,22.96
2023-02-19T14:29:55.783Z,22.87
2023-02-19T14:32:43.630Z,22.79
2023-02-19T14:36:14.506Z,22.71
2023-02-19T14:39:11.567Z,22.32
2023-02-19T14:42:00.271Z,21.78
2023-02-19T14:44:52.924Z,21.35
2023-02-19T14:47:38.709Z,20.84
2023-02-19T14:50:36.534Z,20.42
2023-02-19T14:53:23.605Z,19.98
2023-02-19T14:56:25.136Z,19.61
2023-02-19T14:59:13.848Z,19.27
2023-02-19T15:02:02.189Z,19.00
2023-02-19T15:04:48.477Z,18.74
2023-02-19T15:07:34.413Z,18.53
2023-02-19T15:10:20.608Z,18.34
2023-02-19T15:13:08.450Z,18.09
2023-02-19T15:15:55.492Z,17.86
2023-02-19T15:18:46.347Z,17.61
2023-02-19T15:21:32.947Z,17.41
2023-02-19T15:24:19.350Z,17.20
2023-02-19T15:27:05.399Z,17.03
2023-02-19T15:29:53.685Z,16.86
2023-02-19T15:32:40.985Z,16.66
2023-02-19T15:35:28.095Z,16.47
2023-02-19T15:38:13.775Z,16.31
2023-02-19T15:40:59.843Z,16.14
2023-02-19T15:44:09.839Z,15.92
2023-02-19T15:46:56.329Z,15.79
2023-02-19T15:49:51.772Z,15.62
2023-02-19T15:52:48.549Z,15.46
2023-02-19T15:55:46.785Z,15.35
2023-02-19T15:58:47.447Z,15.25
2023-02-19T16:01:36.618Z,15.13
2023-02-19T16:04:22.578Z,15.05
2023-02-19T16:07:23.595Z,14.96
2023-02-19T16:10:22.880Z,14.89
2023-02-19T16:13:11.988Z,14.83
2023-02-19T16:16:17.105Z,14.75
2023-02-19T16:19:02.932Z,14.68
2023-02-19T16:21:48.660Z,14.55
2023-02-19T16:24:46.877Z,14.52
2023-02-19T16:27:39.244Z,14.49
2023-02-19T16:30:31.594Z,14.37
2023-02-19T16:33:36.429Z,14.32
2023-02-19T16:36:36.095Z,14.29
2023-02-19T16:39:23.406Z,14.19
2023-02-19T16:42:12.612Z,14.15
2023-02-19T16:44:58.206Z,14.06
2023-02-19T16:47:51.354Z,14.03
2023-02-19T16:50:41.407Z,13.99
2023-02-19T16:53:28.912Z,13.93
2023-02-19T16:56:18.596Z,13.84
2023-02-19T16:59:05.234Z,13.85
2023-02-19T17:01:50.793Z,13.76
2023-02-19T17:04:36.552Z,13.75
2023-02-19T17:07:22.832Z,13.70
2023-02-19T17:10:11.410Z,13.60
2023-02-19T17:12:57.212Z,13.52
2023-02-19T17:15:43.177Z,13.49
2023-02-19T17:18:30.077Z,13.42
2023-02-19T17:21:21.852Z,13.34
2023-02-19T17:24:07.993Z,13.33
2023-02-19T17:26:53.976Z,13.31
2023-02-19T17:29:40.814Z,13.28
2023-02-19T17:32:26.910Z,13.27
2023-02-19T17:35:13.441Z,13.26
2023-02-19T17:37:59.783Z,13.26
2023-02-19T17:40:45.837Z,13.22
2023-02-19T17:43:31.856Z,13.26
2023-02-19T17:46:19.289Z,13.25
2023-02-19T17:49:05.410Z,13.22
2023-02-19T17:51:51.297Z,13.15
2023-02-19T17:54:37.202Z,13.09
2023-02-19T17:57:22.900Z,13.08
2023-02-19T18:00:09.271Z,13.01
2023-02-19T18:02:59.311Z,13.00
2023-02-19T18:05:45.629Z,12.93
2023-02-19T18:08:31.770Z,12.89
2023-02-19T18:11:18.316Z,12.83
2023-02-19T18:14:03.906Z,12.82
2023-02-19T18:16:50.825Z,12.76
2023-02-19T18:19:37.178Z,12.73
2023-02-19T18:22:24.005Z,12.68
2023-02-19T18:25:10.501Z,12.65
2023-02-19T18:27:56.619Z,12.59
2023-02-19T18:30:42.675Z,12.57
2023-02-19T18:33:28.713Z,12.53
2023-02-19T18:36:14.996Z,12.47
2023-02-19T18:39:01.049Z,12.43
2023-02-19T18:41:49.055Z,12.39
2023-02-19T18:44:35.206Z,12.33
2023-02-19T18:47:22.095Z,12.30
2023-02-19T18:50:09.921Z,12.26
2023-02-19T18:53:00.664Z,12.23
2023-02-19T18:55:46.712Z,12.17
2023-02-19T18:58:32.710Z,12.09
2023-02-19T19:01:21.386Z,12.05
2023-02-19T19:04:07.462Z,11.99
2023-02-19T19:06:53.442Z,11.94
2023-02-19T19:09:39.121Z,11.93
2023-02-19T19:12:24.922Z,11.88
2023-02-19T19:15:10.826Z,11.81
2023-02-19T19:17:56.650Z,11.78
2023-02-19T19:20:42.451Z,11.78
2023-02-19T19:23:28.181Z,11.77
2023-02-19T19:26:14.730Z,11.76
2023-02-19T19:29:00.683Z,11.73
2023-02-19T19:31:46.915Z,11.68
2023-02-19T19:34:32.944Z,11.62
2023-02-19T19:37:18.689Z,11.57
2023-02-19T19:40:04.904Z,11.50
2023-02-19T19:42:52.255Z,11.46
2023-02-19T19:45:38.685Z,11.37
2023-02-19T19:48:27.542Z,11.29
2023-02-19T19:51:13.778Z,11.20
2023-02-19T19:54:01.231Z,11.16
2023-02-19T19:56:47.727Z,11.08
2023-02-19T19:59:33.791Z,10.95
2023-02-19T20:02:19.923Z,10.82
2023-02-19T20:05:06.647Z,10.80
2023-02-19T20:07:54.335Z,10.72
2023-02-19T20:10:43.431Z,10.55
2023-02-19T20:13:31.047Z,10.49
2023-02-19T20:16:16.837Z,10.41
2023-02-19T20:19:02.921Z,10.36
2023-02-19T20:21:51.746Z,10.34
2023-02-19T20:24:38.409Z,10.26
2023-02-19T20:27:24.713Z,10.20
2023-02-19T20:30:15.855Z,10.13
2023-02-19T20:33:02.458Z,10.05
2023-02-19T20:35:48.542Z,10.09
2023-02-19T20:38:35.322Z,10.07
2023-02-19T20:41:21.324Z,10.09
2023-02-19T20:44:09.621Z,10.05
2023-02-19T20:46:58.144Z,10.03
2023-02-19T20:49:46.465Z,10.02
2023-02-19T20:52:32.515Z,9.99
2023-02-19T20:55:19.383Z,9.95
2023-02-19T20:58:05.381Z,9.97
2023-02-19T21:00:53.592Z,9.98
2023-02-19T21:03:39.621Z,9.96
2023-02-19T21:06:26.366Z,9.95
2023-02-19T21:09:12.790Z,9.94
2023-02-19T21:12:00.038Z,9.90
2023-02-19T21:14:49.165Z,9.89
2023-02-19T21:17:35.831Z,9.90
2023-02-19T21:20:21.929Z,9.88
2023-02-19T21:23:08.834Z,9.83
2023-02-19T21:25:56.817Z,9.77
2023-02-19T21:28:43.263Z,9.74
2023-02-19T21:31:59.938Z,9.62
2023-02-19T21:34:45.706Z,9.62
2023-02-19T21:37:41.206Z,9.56
2023-02-19T21:40:29.070Z,9.56
2023-02-19T21:43:15.612Z,9.48
2023-02-19T21:46:01.392Z,9.41
2023-02-19T21:48:51.636Z,9.38
2023-02-19T21:51:41.107Z,9.41
2023-02-19T21:54:26.868Z,9.40
2023-02-19T21:57:12.754Z,9.38
2023-02-19T21:59:58.601Z,9.36
2023-02-19T22:02:44.637Z,9.30
2023-02-19T22:05:30.937Z,9.31
2023-02-19T22:08:17.570Z,9.25
2023-02-19T22:11:04.103Z,9.21
2023-02-19T22:13:50.508Z,9.19
2023-02-19T22:16:36.335Z,9.13
2023-02-19T22:19:22.261Z,9.06
2023-02-19T22:22:08.121Z,9.02
2023-02-19T22:24:53.946Z,9.02
2023-02-19T22:27:40.092Z,8.95
2023-02-19T22:30:26.210Z,8.97
2023-02-19T22:33:11.997Z,8.92
2023-02-19T22:35:57.687Z,8.85
2023-02-19T22:38:43.771Z,8.86
2023-02-19T22:41:30.134Z,8.84
2023-02-19T22:44:16.246Z,8.79
2023-02-19T22:47:02.101Z,8.79
2023-02-19T22:49:48.436Z,8.75
2023-02-19T22:52:36.832Z,8.72
2023-02-19T22:55:22.753Z,8.69
2023-02-19T22:58:08.661Z,8.66
2023-02-19T23:00:55.386Z,8.60
2023-02-19T23:03:52.949Z,8.59
2023-02-19T23:06:42.973Z,8.54
2023-02-19T23:09:30.172Z,8.59
2023-02-19T23:12:16.216Z,8.56
2023-02-19T23:15:02.411Z,8.51
2023-02-19T23:17:48.675Z,8.55
2023-02-19T23:20:35.786Z,8.50
2023-02-19T23:23:21.835Z,8.52
2023-02-19T23:26:07.653Z,8.51
2023-02-19T23:28:53.513Z,8.45
2023-02-19T23:31:39.616Z,8.40
2023-02-19T23:34:29.937Z,8.40
2023-02-19T23:37:19.769Z,8.39
2023-02-19T23:40:05.804Z,8.42
2023-02-19T23:42:52.601Z,8.44
2023-02-19T23:45:38.216Z,8.44
2023-02-19T23:48:24.827Z,8.43
2023-02-19T23:51:10.440Z,8.42
2023-02-19T23:53:56.200Z,8.40
2023-02-19T23:56:41.985Z,8.44
2023-02-19T23:59:27.642Z,8.41
